createdAt,value
2023-04-01T00:03:26.748Z,98589.05
2023-04-01T00:08:19.912Z,98586.31
2023-04-01T00:13:12.735Z,98580.08
2023-04-01T00:18:05.857Z,98573.86
2023-04-01T00:22:59.021Z,98565.76
2023-04-01T00:27:56.740Z,98570.45
2023-04-01T00:32:53.446Z,98565.15
2023-04-01T00:37:46.279Z,98555.07
2023-04-01T00:42:39.442Z,98559.52
2023-04-01T00:47:32.334Z,98552.84
2023-04-01T00:52:27.965Z,98554.43
2023-04-01T00:57:27.585Z,98556.88
2023-04-01T01:02:21.748Z,98557.73
2023-04-01T01:07:17.515Z,98560.31
2023-04-01T01:12:20.776Z,98566.88
2023-04-01T01:17:19.609Z,98566.51
2023-04-01T01:22:50.373Z,98563.39
2023-04-01T01:27:49.754Z,98560.31
2023-04-01T01:33:03.759Z,98564.34
2023-04-01T01:38:03.396Z,98566.69
2023-04-01T01:43:01.524Z,98562.27
2023-04-01T01:47:59.078Z,98561.85
2023-04-01T01:52:52.020Z,98560.03
2023-04-01T01:57:47.463Z,98553.70
2023-04-01T02:02:48.929Z,98554.43
2023-04-01T02:07:45.497Z,98552.22
2023-04-01T02:12:40.203Z,98542.21
2023-04-01T02:17:34.812Z,98537.20
2023-04-01T02:22:42.735Z,98533.08
2023-04-01T02:27:36.318Z,98527.05
2023-04-01T02:32:31.811Z,98523.29
2023-04-01T02:37:25.360Z,98518.34
2023-04-01T02:42:19.350Z,98522.87
2023-04-01T02:47:12.206Z,98524.58
2023-04-01T02:52:05.319Z,98529.91
2023-04-01T02:56:58.207Z,98525.41
2023-04-01T03:01:51.060Z,98525.38
2023-04-01T03:06:43.865Z,98526.39
2023-04-01T03:11:36.755Z,98529.05
2023-04-01T03:16:29.860Z,98528.77
2023-04-01T03:21:25.185Z,98534.15
2023-04-01T03:26:18.434Z,98541.11
2023-04-01T03:31:12.527Z,98548.70
2023-04-01T03:36:09.209Z,98550.92
2023-04-01T03:41:04.187Z,98553.31
2023-04-01T03:45:59.144Z,98557.96
2023-04-01T03:50:52.094Z,98560.35
2023-04-01T03:55:45.830Z,98568.63
2023-04-01T04:00:38.786Z,98571.91
2023-04-01T04:05:32.488Z,98582.80
2023-04-01T04:10:26.860Z,98579.01
2023-04-01T04:15:20.247Z,98584.73
2023-04-01T04:20:13.858Z,98588.50
2023-04-01T04:25:07.622Z,98595.77
2023-04-01T04:30:00.614Z,98593.86
2023-04-01T04:34:53.568Z,98602.83
2023-04-01T04:39:46.656Z,98597.09
2023-04-01T04:44:39.571Z,98601.89
2023-04-01T04:49:33.595Z,98605.46
2023-04-01T04:54:29.808Z,98607.30
2023-04-01T04:59:24.247Z,98610.17
2023-04-01T05:04:52.609Z,98607.29
2023-04-01T05:09:46.891Z,98609.06
2023-04-01T05:14:40.152Z,98609.67
2023-04-01T05:19:35.984Z,98614.98
2023-04-01T05:24:29.092Z,98621.16
2023-04-01T05:29:21.993Z,98620.52
2023-04-01T05:34:17.301Z,98621.27
2023-04-01T05:39:10.778Z,98620.66
2023-04-01T05:44:04.585Z,98623.70
2023-04-01T05:49:06.192Z,98625.63
2023-04-01T05:53:59.398Z,98631.85
2023-04-01T05:58:55.301Z,98630.38
2023-04-01T06:03:49.275Z,98632.02
2023-04-01T06:08:42.199Z,98626.63
2023-04-01T06:14:00.545Z,98633.59
2023-04-01T06:19:12.526Z,98638.77
2023-04-01T06:24:22.034Z,98637.98
2023-04-01T06:29:49.337Z,98641.85
2023-04-01T06:34:57.513Z,98639.84
2023-04-01T06:40:35.717Z,98633.91
2023-04-01T06:45:54.892Z,98632.14
2023-04-01T06:51:34.202Z,98634.14
2023-04-01T06:56:51.164Z,98638.08
2023-04-01T07:01:55.236Z,98636.34
2023-04-01T07:06:59.447Z,98637.41
2023-04-01T07:11:54.214Z,98637.13
2023-04-01T07:17:17.227Z,98637.58
2023-04-01T07:22:32.153Z,98632.02
2023-04-01T07:28:23.304Z,98629.59
2023-04-01T07:33:43.337Z,98631.63
2023-04-01T07:39:01.283Z,98631.02
2023-04-01T07:44:36.981Z,98626.96
2023-04-01T07:49:38.442Z,98625.30
2023-04-01T07:54:57.636Z,98629.80
2023-04-01T08:00:02.734Z,98635.84
2023-04-01T08:05:28.926Z,98642.27
2023-04-01T08:10:38.862Z,98642.08
2023-04-01T08:15:53.313Z,98642.29
2023-04-01T08:21:06.304Z,98643.23
2023-04-01T08:26:05.768Z,98647.72
2023-04-01T08:31:32.476Z,98651.58
2023-04-01T08:36:33.706Z,98654.48
2023-04-01T08:41:54.023Z,98656.57
2023-04-01T08:47:26.430Z,98659.54
2023-04-01T08:52:38.155Z,98664.87
2023-04-01T08:57:40.320Z,98667.99
2023-04-01T09:03:36.379Z,98664.83
2023-04-01T09:08:47.502Z,98667.23
2023-04-01T09:14:07.783Z,98667.19
2023-04-01T09:19:24.136Z,98668.84
2023-04-01T09:24:36.705Z,98670.95
2023-04-01T09:29:38.798Z,98674.57
2023-04-01T09:34:56.173Z,98677.17
2023-04-01T09:40:03.173Z,98682.24
2023-04-01T09:45:25.153Z,98679.02
2023-04-01T09:51:15.078Z,98673.70
2023-04-01T09:56:35.972Z,98675.59
2023-04-01T10:01:38.190Z,98677.80
2023-04-01T10:07:23.246Z,98691.14
2023-04-01T10:12:41.571Z,98696.08
2023-04-01T10:17:59.415Z,98701.70
2023-04-01T10:23:16.376Z,98710.89
2023-04-01T10:28:18.296Z,98717.08
2023-04-01T10:33:52.444Z,98712.80
2023-04-01T10:39:04.178Z,98712.12
2023-04-01T10:44:26.306Z,98717.48
2023-04-01T10:49:50.345Z,98716.56
2023-04-01T10:55:20.720Z,98718.07
2023-04-01T11:00:36.612Z,98715.27
2023-04-01T11:06:18.683Z,98720.98
2023-04-01T11:12:03.115Z,98721.39
2023-04-01T11:16:59.474Z,98720.60
2023-04-01T11:22:18.200Z,98717.50
2023-04-01T11:27:33.298Z,98707.30
2023-04-01T11:32:38.268Z,98707.72
2023-04-01T11:37:57.257Z,98696.54
2023-04-01T11:43:33.589Z,98697.42
2023-04-01T11:49:24.073Z,98694.59
2023-04-01T11:54:39.417Z,98695.48
2023-04-01T11:59:54.376Z,98701.89
2023-04-01T12:05:00.473Z,98705.77
2023-04-01T12:09:56.238Z,98711.77
2023-04-01T12:15:18.057Z,98711.00
2023-04-01T12:20:14.602Z,98714.31
2023-04-01T12:25:21.278Z,98718.05
2023-04-01T12:30:43.655Z,98715.94
2023-04-01T12:35:54.810Z,98714.89
2023-04-01T12:41:24.468Z,98718.99
2023-04-01T12:46:43.606Z,98716.16
2023-04-01T12:51:55.947Z,98719.91
2023-04-01T12:57:11.829Z,98720.70
2023-04-01T13:02:25.869Z,98722.42
2023-04-01T13:07:43.047Z,98724.48
2023-04-01T13:12:49.775Z,98730.75
2023-04-01T13:18:09.664Z,98739.84
2023-04-01T13:23:11.554Z,98737.58
2023-04-01T13:28:21.712Z,98740.81
2023-04-01T13:33:31.116Z,98741.52
2023-04-01T13:38:42.355Z,98742.39
2023-04-01T13:43:42.085Z,98747.29
2023-04-01T13:48:47.321Z,98748.75
2023-04-01T13:53:46.227Z,98757.27
2023-04-01T13:58:52.437Z,98757.59
2023-04-01T14:04:22.620Z,98762.60
2023-04-01T14:09:32.886Z,98764.54
2023-04-01T14:15:09.771Z,98765.60
2023-04-01T14:20:28.177Z,98769.70
2023-04-01T14:25:42.744Z,98770.50
2023-04-01T14:30:44.824Z,98779.20
2023-04-01T14:35:44.409Z,98782.13
2023-04-01T14:40:52.085Z,98788.89
2023-04-01T14:46:07.619Z,98795.89
2023-04-01T14:51:12.086Z,98799.37
2023-04-01T14:56:05.636Z,98802.80
2023-04-01T15:01:27.084Z,98806.77
2023-04-01T15:06:58.163Z,98815.77
2023-04-01T15:12:13.733Z,98828.91
2023-04-01T15:17:31.094Z,98830.55
2023-04-01T15:22:54.401Z,98836.81
2023-04-01T15:27:57.674Z,98849.45
2023-04-01T15:33:12.190Z,98866.77
2023-04-01T15:38:27.176Z,98871.68
2023-04-01T15:43:28.887Z,98881.80
2023-04-01T15:48:58.715Z,98888.05
2023-04-01T15:54:04.953Z,98896.17
2023-04-01T15:59:16.487Z,98903.02
2023-04-01T16:04:38.325Z,98905.20
2023-04-01T16:09:58.760Z,98918.61
2023-04-01T16:15:14.416Z,98933.27
2023-04-01T16:20:20.217Z,98941.84
2023-04-01T16:25:30.292Z,98954.56
2023-04-01T16:30:39.566Z,98959.65
2023-04-01T16:35:44.881Z,98969.94
2023-04-01T16:41:15.871Z,98978.46
2023-04-01T16:46:14.392Z,98989.45
2023-04-01T16:51:17.225Z,98995.38
2023-04-01T16:56:16.872Z,99007.69
2023-04-01T17:01:38.667Z,99013.77
2023-04-01T17:06:55.939Z,99023.63
2023-04-01T17:12:10.333Z,99028.98
2023-04-01T17:17:28.247Z,99040.60
2023-04-01T17:22:29.345Z,99050.48
2023-04-01T17:27:28.026Z,99061.92
2023-04-01T17:32:42.973Z,99066.27
2023-04-01T17:37:56.847Z,99071.80
2023-04-01T17:43:34.978Z,99086.17
2023-04-01T17:49:00.830Z,99097.25
2023-04-01T17:54:20.532Z,99104.34
2023-04-01T17:59:40.393Z,99117.84
2023-04-01T18:05:46.895Z,99127.69
2023-04-01T18:11:16.931Z,99135.80
2023-04-01T18:16:27.982Z,99137.88
2023-04-01T18:21:26.733Z,99147.39
2023-04-01T18:26:35.774Z,99147.39
2023-04-01T18:31:39.930Z,99155.00
2023-04-01T18:36:55.418Z,99157.07
2023-04-01T18:42:11.557Z,99168.13
2023-04-01T18:47:25.944Z,99170.55
2023-04-01T18:52:45.736Z,99173.30
2023-04-01T18:57:57.773Z,99182.13
2023-04-01T19:03:09.602Z,99183.15
2023-04-01T19:08:37.373Z,99194.04
2023-04-01T19:13:48.881Z,99201.48
2023-04-01T19:19:00.676Z,99209.94
2023-04-01T19:23:59.759Z,99218.05
2023-04-01T19:28:55.810Z,99222.21
2023-04-01T19:34:10.634Z,99230.84
2023-04-01T19:39:29.567Z,99231.70
2023-04-01T19:44:53.223Z,99241.02
2023-04-01T19:49:55.649Z,99246.54
2023-04-01T19:54:57.673Z,99261.39
2023-04-01T20:00:04.409Z,99265.70
2023-04-01T20:05:06.618Z,99272.59
2023-04-01T20:10:10.998Z,99276.73
2023-04-01T20:15:23.794Z,99282.27
2023-04-01T20:20:28.542Z,99281.87
2023-04-01T20:25:29.148Z,99291.02
2023-04-01T20:30:54.717Z,99292.74
2023-04-01T20:36:16.473Z,99301.20
2023-04-01T20:41:27.669Z,99311.73
2023-04-01T20:46:48.194Z,99319.16
2023-04-01T20:51:47.186Z,99324.66
2023-04-01T20:56:57.274Z,99329.33
2023-04-01T21:02:04.635Z,99335.36
2023-04-01T21:07:23.279Z,99337.58
2023-04-01T21:12:22.125Z,99345.34
2023-04-01T21:17:36.859Z,99351.36
2023-04-01T21:22:29.688Z,99363.05
2023-04-01T21:27:23.424Z,99366.48
2023-04-01T21:32:43.069Z,99378.21
2023-04-01T21:37:51.971Z,99383.36
2023-04-01T21:42:56.830Z,99390.06
2023-04-01T21:48:43.071Z,99393.48
2023-04-01T21:54:16.746Z,99398.09
2023-04-01T21:59:50.856Z,99402.42
2023-04-01T22:04:53.465Z,99409.84
2023-04-01T22:10:25.291Z,99415.17
2023-04-01T22:15:50.734Z,99417.93
2023-04-01T22:20:58.460Z,99420.50
2023-04-01T22:26:11.173Z,99424.12
2023-04-01T22:31:07.637Z,99432.55
2023-04-01T22:36:08.140Z,99435.61
2023-04-01T22:41:24.131Z,99444.00
2023-04-01T22:47:00.507Z,99447.25
2023-04-01T22:52:27.281Z,99450.52
2023-04-01T22:57:39.156Z,99454.43
2023-04-01T23:02:42.942Z,99463.70
2023-04-01T23:07:51.188Z,99466.77
2023-04-01T23:12:44.765Z,99471.72
2023-04-01T23:18:03.617Z,99476.50
2023-04-01T23:23:27.790Z,99482.48
2023-04-01T23:28:28.211Z,99488.55
2023-04-01T23:33:21.053Z,99495.91
2023-04-01T23:38:15.462Z,99499.17
2023-04-01T23:43:44.235Z,99496.73
2023-04-01T23:48:43.160Z,99499.29
2023-04-01T23:53:37.047Z,99507.21
2023-04-01T23:58:57.732Z,99513.95
